Time;durP1;ratioP1;P1;durP2;ratioP2;P2;SDS_P1;SDS_P2;PMS_P1;PMS_P2;Temp;Humidity;BMP_temperature;BMP_pressure;BME280_temperature;BME280_humidity;BME280_pressure;Samples;Min_cycle;Max_cycle;Signal;HPM_P1;HPM_P2
2022/11/04 00:00:05;;;;;;;26.23;17.90;;;;;;;10.23;100.00;101618.25;2072877;28;20431;-64
2022/11/04 00:01:06;;;;;;;26.80;18.03;;;;;;;10.21;100.00;101615.91;2071972;28;20449;-64
2022/11/04 00:02:06;;;;;;;25.10;17.20;;;;;;;10.19;100.00;101604.41;2071383;28;20465;-64
2022/11/04 00:03:06;;;;;;;20.80;16.63;;;;;;;9.87;100.00;101569.78;2071609;28;20200;-64
2022/11/04 00:04:08;;;;;;;30.03;18.80;;;;;;;10.16;100.00;101607.22;2071970;28;20700;-64
2022/11/04 00:05:08;;;;;;;25.93;17.00;;;;;;;10.16;100.00;101607.22;2071809;28;20717;-64
2022/11/04 00:06:09;;;;;;;27.53;18.33;;;;;;;10.13;100.00;101602.47;2072455;28;20463;-65
2022/11/04 00:08:22;;;;;;;23.70;17.30;;;;;;;10.11;100.00;101600.13;2072333;28;20599;-64
2022/11/04 00:08:30;;;;;;;29.50;17.57;;;;;;;9.97;100.00;101583.56;2071135;28;20271;-64
2022/11/04 00:09:30;;;;;;;26.70;17.70;;;;;;;10.09;100.00;101602.50;2072278;28;20453;-64
2022/11/04 00:13:08;;;;;;;26.40;17.93;;;;;;;10.08;100.00;101589.88;2072020;28;20795;-64
2022/11/04 00:14:10;;;;;;;25.33;18.40;;;;;;;10.06;100.00;101589.50;2072418;28;20432;-65
2022/11/04 00:17:48;;;;;;;24.30;17.00;;;;;;;10.11;100.00;101594.59;2072235;28;20448;-64
2022/11/04 00:18:49;;;;;;;24.97;18.10;;;;;;;10.11;100.00;101593.81;2071829;28;20413;-64
2022/11/04 00:29:06;;;;;;;22.00;16.13;;;;;;;10.00;100.00;101591.06;2071791;28;20397;-64
2022/11/04 00:30:09;;;;;;;23.03;17.13;;;;;;;10.00;100.00;101584.75;2072070;28;20421;-64
2022/11/04 00:33:51;;;;;;;27.63;17.00;;;;;;;9.98;100.00;101582.38;2071981;28;20401;-64
2022/11/04 00:34:52;;;;;;;24.33;16.43;;;;;;;9.95;100.00;101577.63;2071510;28;20835;-64
2022/11/04 00:35:56;;;;;;;24.63;17.07;;;;;;;9.95;100.00;101579.63;2071533;28;20456;-65
2022/11/04 00:36:58;;;;;;;26.90;17.37;;;;;;;9.93;100.00;101574.50;2072415;28;20536;-64
2022/11/04 00:37:59;;;;;;;25.33;16.80;;;;;;;9.92;100.00;101583.19;2071871;28;20447;-64
2022/11/04 00:38:59;;;;;;;26.47;16.77;;;;;;;9.90;100.00;101583.59;2071157;28;20432;-65
2022/11/04 00:40:00;;;;;;;23.27;16.57;;;;;;;9.89;100.00;101582.03;2072390;28;20227;-63
2022/11/04 00:41:00;;;;;;;24.40;16.97;;;;;;;9.88;100.00;101582.44;2071604;28;20205;-64
2022/11/04 00:42:01;;;;;;;24.30;17.77;;;;;;;9.78;100.00;101572.22;2071927;28;20202;-64
2022/11/04 00:43:01;;;;;;;22.43;16.53;;;;;;;9.84;100.00;101585.22;2071044;28;20228;-65
2022/11/04 00:44:03;;;;;;;26.30;17.30;;;;;;;9.82;100.00;101584.84;2071715;28;20990;-64
2022/11/04 00:45:05;;;;;;;23.80;16.57;;;;;;;9.75;100.00;101582.13;2072192;28;20205;-65
2022/11/04 00:46:06;;;;;;;26.53;16.90;;;;;;;9.78;100.00;101591.59;2071569;28;20820;-64
2022/11/04 00:47:06;;;;;;;26.13;16.63;;;;;;;9.73;100.00;101595.56;2070587;28;20470;-64
2022/11/04 00:48:07;;;;;;;25.07;16.43;;;;;;;9.42;100.00;101565.25;2071793;28;20197;-64
2022/11/04 00:49:07;;;;;;;22.47;16.90;;;;;;;9.71;100.00;101594.41;2071899;28;20227;-64
2022/11/04 00:50:08;;;;;;;26.70;17.20;;;;;;;9.64;100.00;101586.91;2071188;28;20495;-64
2022/11/04 00:51:09;;;;;;;22.93;16.53;;;;;;;9.54;100.00;101575.91;2071897;28;20338;-64
2022/11/04 00:52:09;;;;;;;23.97;16.30;;;;;;;9.63;100.00;101593.63;2071503;28;20189;-64
2022/11/04 00:53:09;;;;;;;23.43;16.70;;;;;;;9.54;100.00;101584.22;2071310;28;20198;-64
2022/11/04 00:54:10;;;;;;;25.27;16.40;;;;;;;9.55;100.00;101591.31;2072305;28;20284;-64
2022/11/04 00:55:10;;;;;;;26.27;16.70;;;;;;;9.52;100.00;101589.34;2071940;28;20207;-64
2022/11/04 00:56:11;;;;;;;23.73;16.70;;;;;;;9.02;100.00;101514.06;2072110;28;20239;-64
2022/11/04 00:57:12;;;;;;;25.70;17.27;;;;;;;9.48;100.00;101592.13;2071549;28;20193;-64
2022/11/04 00:58:13;;;;;;;28.50;17.90;;;;;;;9.45;100.00;101589.38;2070922;28;20680;-64
2022/11/04 00:59:14;;;;;;;35.60;18.07;;;;;;;9.27;100.00;101574.84;2071971;28;20840;-64
2022/11/04 01:00:15;;;;;;;35.00;18.13;;;;;;;9.45;100.00;101583.84;2071121;28;20244;-63
2022/11/04 01:01:16;;;;;;;40.90;18.00;;;;;;;9.44;100.00;101582.25;2071053;28;20186;-64
2022/11/04 01:02:17;;;;;;;34.83;17.27;;;;;;;8.82;100.00;101485.28;2071789;28;20435;-64
2022/11/04 01:03:17;;;;;;;27.60;18.50;;;;;;;9.41;100.00;101583.84;2071856;28;20498;-64
2022/11/04 01:04:18;;;;;;;26.53;17.77;;;;;;;9.43;100.00;101580.69;2071784;28;20339;-64
2022/11/04 01:05:18;;;;;;;29.03;17.83;;;;;;;9.42;100.00;101576.31;2071265;28;20671;-65
2022/11/04 01:06:21;;;;;;;28.40;18.23;;;;;;;9.31;100.00;101584.69;2071771;28;20207;-64
2022/11/04 01:07:21;;;;;;;26.23;17.90;;;;;;;9.42;100.00;101574.38;2071681;28;20730;-64
2022/11/04 01:08:22;;;;;;;25.77;16.83;;;;;;;9.44;100.00;101573.97;2070417;28;20530;-64
2022/11/04 01:09:22;;;;;;;27.17;17.67;;;;;;;9.38;100.00;101572.81;2071203;28;20219;-63
2022/11/04 01:10:23;;;;;;;26.07;18.07;;;;;;;8.79;100.00;101483.34;2071713;28;20185;-64
2022/11/04 01:11:24;;;;;;;26.70;17.83;;;;;;;9.42;100.00;101584.63;2078078;28;20235;-65
2022/11/04 01:12:24;;;;;;;30.70;18.23;;;;;;;9.36;100.00;101575.16;2077055;28;20724;-64
2022/11/04 01:13:25;;;;;;;25.77;17.70;;;;;;;9.40;100.00;101584.25;2071772;28;20491;-64
2022/11/04 01:14:25;;;;;;;23.33;17.70;;;;;;;9.28;100.00;101563.34;2071835;28;20268;-63
2022/11/04 01:15:26;;;;;;;26.37;16.77;;;;;;;8.92;100.00;101505.81;2071790;28;20220;-63
2022/11/04 01:16:27;;;;;;;22.03;16.97;;;;;;;9.37;100.00;101580.31;2072263;28;20544;-64
2022/11/04 01:17:27;;;;;;;23.20;17.20;;;;;;;9.26;100.00;101564.94;2071622;28;20189;-65
2022/11/04 01:18:28;;;;;;;23.37;17.37;;;;;;;8.47;100.00;101438.44;2071216;28;20427;-64
2022/11/04 01:19:28;;;;;;;22.97;17.97;;;;;;;9.36;100.00;101575.16;2071902;28;20227;-64
2022/11/04 01:20:29;;;;;;;23.33;17.70;;;;;;;9.37;100.00;101577.53;2071322;28;20181;-64
2022/11/04 01:21:30;;;;;;;26.10;17.93;;;;;;;9.39;100.00;101577.16;2071277;28;20692;-64
2022/11/04 01:22:30;;;;;;;22.23;16.23;;;;;;;9.36;100.00;101573.22;2070885;28;20204;-65
2022/11/04 01:23:32;;;;;;;22.77;16.63;;;;;;;9.37;100.00;101576.78;2079299;28;20188;-64
2022/11/04 01:24:33;;;;;;;25.03;16.13;;;;;;;9.37;100.00;101576.78;2078389;28;20216;-64
2022/11/04 01:25:33;;;;;;;25.17;17.80;;;;;;;9.36;100.00;101575.97;2071537;28;20432;-64
2022/11/04 01:26:34;;;;;;;26.33;16.50;;;;;;;9.36;100.00;101577.94;2070707;28;20189;-64
2022/11/04 01:27:34;;;;;;;27.43;16.50;;;;;;;8.81;100.00;101505.84;2071798;28;20203;-64
2022/11/04 01:28:35;;;;;;;27.07;17.20;;;;;;;9.31;100.00;101567.28;2071105;28;20209;-64
2022/11/04 01:29:35;;;;;;;25.10;17.13;;;;;;;9.24;100.00;101556.25;2071464;28;20193;-64
2022/11/04 01:30:39;;;;;;;27.27;18.23;;;;;;;9.29;100.00;101580.75;2070921;28;20198;-64
2022/11/04 01:31:40;;;;;;;24.73;17.40;;;;;;;8.59;100.00;101457.34;2070983;28;20200;-65
2022/11/04 01:32:40;;;;;;;25.67;17.57;;;;;;;9.31;100.00;101561.75;2070823;28;20475;-64
2022/11/04 01:33:40;;;;;;;29.43;17.67;;;;;;;9.31;100.00;101559.00;2070844;28;20221;-64
2022/11/04 01:34:41;;;;;;;28.07;17.37;;;;;;;9.30;100.00;101555.44;2071280;28;20238;-63
2022/11/04 01:35:41;;;;;;;25.13;17.13;;;;;;;9.26;100.00;101548.34;2071810;28;20667;-64
2022/11/04 01:36:42;;;;;;;28.97;17.47;;;;;;;9.31;100.00;101551.50;2072098;28;20190;-64
2022/11/04 01:37:42;;;;;;;24.10;16.53;;;;;;;9.30;100.00;101555.44;2071217;28;20196;-64
2022/11/04 01:38:43;;;;;;;23.53;16.60;;;;;;;9.27;100.00;101550.72;2071308;28;20192;-64
2022/11/04 01:39:43;;;;;;;23.60;16.53;;;;;;;9.29;100.00;101564.94;2071813;28;20582;-64
2022/11/04 01:40:44;;;;;;;28.90;18.07;;;;;;;9.29;100.00;101564.16;2071121;28;20213;-64
2022/11/04 01:41:44;;;;;;;23.87;18.13;;;;;;;9.31;100.00;101561.75;2071468;28;20184;-64
2022/11/04 01:42:45;;;;;;;21.50;15.60;;;;;;;9.30;100.00;101563.75;2070867;28;20193;-64
2022/11/04 01:43:55;;;;;;;22.53;17.07;;;;;;;9.31;100.00;101564.53;2072197;28;20193;-64
2022/11/04 01:44:58;;;;;;;26.50;16.33;;;;;;;9.32;100.00;101553.06;2071521;28;20197;-63
2022/11/04 01:46:00;;;;;;;27.20;17.07;;;;;;;9.32;100.00;101561.34;2071434;28;20919;-63
2022/11/04 01:47:00;;;;;;;24.70;17.57;;;;;;;9.32;100.00;101555.81;2071564;28;20443;-64
2022/11/04 01:48:11;;;;;;;21.77;16.63;;;;;;;9.34;100.00;101544.38;2071244;28;20463;-64
2022/11/04 01:49:26;;;;;;;22.87;16.10;;;;;;;9.32;100.00;101553.06;2071033;28;20189;-64
2022/11/04 01:50:29;;;;;;;24.10;17.07;;;;;;;9.30;100.00;101555.44;2069194;28;20939;-64
2022/11/04 01:51:33;;;;;;;24.37;16.80;;;;;;;9.19;100.00;101537.31;2072172;28;20940;-64
2022/11/04 01:52:53;;;;;;;23.87;15.83;;;;;;;9.26;100.00;101553.88;2071243;28;20432;-64
2022/11/04 01:53:55;;;;;;;26.27;18.73;;;;;;;8.71;100.00;101467.19;2071439;28;20428;-65
2022/11/04 01:55:01;;;;;;;31.77;20.70;;;;;;;9.25;100.00;101571.66;2071650;28;20447;-63
2022/11/04 01:56:10;;;;;;;26.00;18.57;;;;;;;9.03;100.00;101526.69;2071004;28;20543;-64
2022/11/04 01:57:17;;;;;;;31.23;20.77;;;;;;;9.14;100.00;101546.03;2071162;28;20790;-64
2022/11/04 01:58:22;;;;;;;29.60;20.77;;;;;;;9.13;100.00;101549.97;2070842;28;20808;-64
2022/11/04 01:59:29;;;;;;;32.13;20.57;;;;;;;9.18;100.00;101555.88;2071198;28;20443;-65
2022/11/04 02:00:29;;;;;;;22.67;16.07;;;;;;;9.22;100.00;101556.66;2071067;28;20439;-64
2022/11/04 02:01:30;;;;;;;22.30;15.97;;;;;;;9.23;100.00;101552.69;2071576;28;20523;-65
2022/11/04 02:02:31;;;;;;;21.53;15.87;;;;;;;9.25;100.00;101547.56;2071131;28;20610;-64
2022/11/04 02:03:37;;;;;;;28.73;17.17;;;;;;;9.26;100.00;101546.38;2071574;28;20682;-64
2022/11/04 02:04:38;;;;;;;25.87;16.83;;;;;;;9.29;100.00;101544.78;2070234;28;20464;-64
2022/11/04 02:05:38;;;;;;;24.87;16.77;;;;;;;9.30;100.00;101546.34;2071366;28;20438;-65
2022/11/04 02:06:39;;;;;;;22.87;16.50;;;;;;;9.28;100.00;101543.97;2072035;28;20516;-64
2022/11/04 02:07:39;;;;;;;23.03;15.97;;;;;;;9.26;100.00;101549.13;2072016;28;20196;-64
2022/11/04 02:08:40;;;;;;;26.60;17.20;;;;;;;9.26;100.00;101540.84;2069570;28;20593;-64
2022/11/04 02:09:43;;;;;;;24.87;16.57;;;;;;;9.28;100.00;101543.97;2071697;28;20189;-65
2022/11/04 02:10:49;;;;;;;22.87;17.37;;;;;;;9.23;100.00;101527.03;2071508;28;20814;-64
2022/11/04 02:13:09;;;;;;;21.87;15.77;;;;;;;9.29;100.00;101531.75;2071203;28;20452;-65
2022/11/04 02:14:09;;;;;;;24.03;16.40;;;;;;;9.29;100.00;101533.72;2070786;28;20478;-65
2022/11/04 02:15:10;;;;;;;21.57;15.20;;;;;;;9.27;100.00;101534.13;2070907;28;20574;-65
2022/11/04 02:17:45;;;;;;;22.07;16.00;;;;;;;9.25;100.00;101536.50;2070738;28;20206;-64
2022/11/04 02:19:26;;;;;;;24.13;17.07;;;;;;;9.16;100.00;101522.31;2070479;28;20440;-64
2022/11/04 02:20:53;;;;;;;21.73;15.63;;;;;;;9.21;100.00;101535.72;2071219;28;20416;-64
2022/11/04 02:21:56;;;;;;;23.53;17.40;;;;;;;9.19;100.00;101534.53;2078529;28;20517;-65
2022/11/04 02:23:22;;;;;;;27.67;17.50;;;;;;;9.17;100.00;101534.94;2078183;28;20423;-64
2022/11/04 02:24:44;;;;;;;25.43;17.57;;;;;;;9.18;100.00;101535.75;2071201;28;20455;-64
2022/11/04 02:26:15;;;;;;;27.27;15.67;;;;;;;9.14;100.00;101533.00;2071463;28;20936;-64
2022/11/04 02:27:29;;;;;;;23.37;15.17;;;;;;;9.09;100.00;101540.91;2071977;28;20417;-64
2022/11/04 02:29:01;;;;;;;24.20;15.67;;;;;;;9.06;100.00;101542.50;2070840;28;20469;-65
2022/11/04 02:30:11;;;;;;;26.97;16.93;;;;;;;8.45;100.00;101459.38;2069854;28;20966;-64
2022/11/04 02:31:35;;;;;;;23.27;15.73;;;;;;;8.97;100.00;101542.13;2070852;28;20934;-64
2022/11/04 02:33:13;;;;;;;21.50;15.50;;;;;;;8.98;100.00;101531.84;2070666;28;20432;-64
2022/11/04 02:34:29;;;;;;;22.13;16.07;;;;;;;8.95;100.00;101544.50;2055195;28;20476;-64
2022/11/04 02:35:41;;;;;;;20.40;16.00;;;;;;;8.95;100.00;101544.50;2070856;28;20913;-65
2022/11/04 02:37:08;;;;;;;21.47;16.63;;;;;;;8.89;100.00;101543.34;2071272;28;20863;-65
2022/11/04 02:38:27;;;;;;;20.87;15.70;;;;;;;8.89;100.00;101545.31;2062008;28;20471;-64
2022/11/04 02:39:27;;;;;;;23.73;17.57;;;;;;;8.89;100.00;101539.78;2070376;28;20432;-64
2022/11/04 02:41:21;;;;;;;22.30;16.10;;;;;;;8.93;100.00;101532.25;2070117;28;20466;-64
2022/11/04 02:43:10;;;;;;;23.37;17.13;;;;;;;8.95;100.00;101538.16;2068369;28;20350;-64
2022/11/04 02:44:20;;;;;;;23.10;15.00;;;;;;;8.91;100.00;101543.72;2061914;28;20525;-64
2022/11/04 02:45:21;;;;;;;28.67;16.33;;;;;;;8.92;100.00;101547.28;2070130;28;20448;-65
2022/11/04 02:46:36;;;;;;;29.10;15.40;;;;;;;8.91;100.00;101542.94;2071603;28;20534;-64
2022/11/04 02:47:41;;;;;;;21.97;15.60;;;;;;;8.92;100.00;101542.53;2071623;28;20459;-65
2022/11/04 02:49:01;;;;;;;24.87;16.80;;;;;;;8.93;100.00;101535.84;2072325;28;20443;-64
2022/11/04 02:50:11;;;;;;;22.97;15.53;;;;;;;8.96;100.00;101546.06;2072580;28;20832;-65
2022/11/04 02:51:19;;;;;;;24.47;16.47;;;;;;;8.96;100.00;101537.78;2072975;28;20429;-64
2022/11/04 02:52:39;;;;;;;23.37;16.37;;;;;;;8.59;100.00;101487.75;2072974;28;20439;-64
2022/11/04 02:53:46;;;;;;;24.03;16.80;;;;;;;9.00;100.00;101546.84;2074964;28;20446;-64
2022/11/04 02:54:58;;;;;;;24.83;17.30;;;;;;;9.00;100.00;101540.53;2073455;28;20449;-65
2022/11/04 02:56:02;;;;;;;21.87;16.03;;;;;;;9.00;100.00;101532.25;2072862;28;20489;-64
2022/11/04 02:57:06;;;;;;;23.33;16.57;;;;;;;8.98;100.00;101545.69;2072086;28;20963;-65
2022/11/04 02:58:17;;;;;;;22.90;16.33;;;;;;;8.99;100.00;101538.97;2071535;28;20507;-64
2022/11/04 02:59:44;;;;;;;21.10;14.97;;;;;;;9.00;100.00;101544.09;2071785;28;21015;-65
2022/11/04 03:00:46;;;;;;;21.63;15.30;;;;;;;9.02;100.00;101552.75;2070646;28;20443;-66
2022/11/04 03:01:49;;;;;;;23.33;15.80;;;;;;;8.04;100.00;101380.91;2072382;28;20422;-67
2022/11/04 03:02:54;;;;;;;24.33;15.47;;;;;;;9.07;100.00;101535.78;2072544;28;20971;-66
2022/11/04 03:04:24;;;;;;;19.97;14.23;;;;;;;9.05;100.00;101532.63;2072876;28;20473;-66
2022/11/04 03:05:33;;;;;;;23.63;15.90;;;;;;;9.04;100.00;101530.25;2072114;28;20834;-66
2022/11/04 03:06:36;;;;;;;19.63;14.37;;;;;;;9.01;100.00;101531.84;2072578;28;20415;-66
2022/11/04 03:07:41;;;;;;;24.83;15.47;;;;;;;7.92;100.00;101375.78;2073136;28;20830;-66
2022/11/04 03:08:46;;;;;;;24.17;14.83;;;;;;;8.97;100.00;101524.75;2071796;28;20951;-67
2022/11/04 03:09:50;;;;;;;21.63;14.80;;;;;;;8.94;100.00;101520.81;2073244;28;20820;-67
2022/11/04 03:10:56;;;;;;;25.33;15.90;;;;;;;8.97;100.00;101524.75;2072379;28;20494;-67
2022/11/04 03:12:03;;;;;;;22.50;14.93;;;;;;;8.98;100.00;101532.63;2073005;28;21009;-66
2022/11/04 03:13:32;;;;;;;23.17;14.57;;;;;;;8.59;100.00;101475.88;2079436;28;20451;-67
2022/11/04 03:14:50;;;;;;;20.13;15.90;;;;;;;8.93;100.00;101532.25;2076361;28;20419;-66
2022/11/04 03:15:56;;;;;;;21.50;15.70;;;;;;;8.93;100.00;101532.25;2072402;28;20442;-67
2022/11/04 03:17:02;;;;;;;20.23;13.43;;;;;;;8.88;100.00;101527.94;2072827;28;20431;-66
2022/11/04 03:18:32;;;;;;;21.00;14.40;;;;;;;8.87;100.00;101534.63;2072322;28;20445;-66
2022/11/04 03:19:52;;;;;;;24.67;15.50;;;;;;;8.29;100.00;101448.72;2072523;28;20448;-66
2022/11/04 03:20:56;;;;;;;19.43;14.47;;;;;;;8.54;100.00;101495.63;2072504;28;21774;-67
2022/11/04 03:22:03;;;;;;;24.47;16.37;;;;;;;8.21;100.00;101449.91;2070940;28;20955;-66
2022/11/04 03:23:03;;;;;;;20.20;14.77;;;;;;;8.78;100.00;101531.53;2071713;28;20467;-67
2022/11/04 03:24:04;;;;;;;20.73;15.00;;;;;;;8.77;100.00;101537.44;2072403;28;20458;-67
2022/11/04 03:25:07;;;;;;;22.00;14.67;;;;;;;8.06;100.00;101429.00;2072478;28;20196;-66
2022/11/04 03:26:18;;;;;;;18.20;14.13;;;;;;;8.76;100.00;101535.88;2071382;28;20940;-66
2022/11/04 03:27:48;;;;;;;20.63;14.07;;;;;;;8.65;100.00;101519.28;2071666;28;20448;-67
2022/11/04 03:29:02;;;;;;;19.90;14.77;;;;;;;8.74;100.00;101539.03;2071412;28;21728;-66
2022/11/04 03:30:10;;;;;;;21.20;15.37;;;;;;;8.73;100.00;101542.97;2072263;28;20448;-66
2022/11/04 03:31:22;;;;;;;23.40;15.43;;;;;;;8.72;100.00;101544.13;2071784;28;20515;-66
2022/11/04 03:32:42;;;;;;;20.03;15.33;;;;;;;7.79;100.00;101402.22;2072391;28;20443;-66
2022/11/04 03:33:49;;;;;;;21.43;16.37;;;;;;;8.66;100.00;101547.72;2072014;28;20443;-66
2022/11/04 03:34:50;;;;;;;24.00;16.17;;;;;;;8.61;100.00;101556.41;2072214;28;20907;-66
2022/11/04 03:35:51;;;;;;;23.40;16.77;;;;;;;8.66;100.00;101544.97;2072341;28;20480;-66
2022/11/04 03:36:52;;;;;;;23.13;15.23;;;;;;;8.66;100.00;101542.97;2072178;28;20458;-66
2022/11/04 03:37:52;;;;;;;23.97;15.97;;;;;;;8.67;100.00;101541.00;2072718;28;20995;-66
2022/11/04 03:38:53;;;;;;;23.33;15.70;;;;;;;8.65;100.00;101541.41;2072210;28;20563;-66
2022/11/04 03:39:54;;;;;;;22.27;15.57;;;;;;;8.67;100.00;101535.50;2072756;28;20190;-66
2022/11/04 03:40:58;;;;;;;22.33;16.33;;;;;;;8.20;100.00;101466.88;2071997;28;20215;-66
2022/11/04 03:42:18;;;;;;;23.40;16.97;;;;;;;8.64;100.00;101539.03;2072004;28;20454;-66
2022/11/04 03:43:26;;;;;;;22.13;15.50;;;;;;;8.63;100.00;101541.03;2072728;28;20415;-66
2022/11/04 03:44:28;;;;;;;25.50;16.67;;;;;;;8.14;100.00;101468.41;2072138;28;20454;-66
2022/11/04 03:45:29;;;;;;;23.60;15.43;;;;;;;8.64;100.00;101539.03;2072264;28;20447;-66
2022/11/04 03:46:30;;;;;;;22.97;16.03;;;;;;;8.64;100.00;101542.59;2072590;28;20443;-66
2022/11/04 03:47:31;;;;;;;19.53;15.57;;;;;;;8.62;100.00;101544.94;2072402;28;20692;-66
2022/11/04 03:48:31;;;;;;;28.07;16.83;;;;;;;8.18;100.00;101475.53;2071906;28;20197;-66
2022/11/04 03:49:32;;;;;;;23.10;16.07;;;;;;;8.50;100.00;101514.97;2072155;28;20475;-66
2022/11/04 03:50:40;;;;;;;24.63;16.00;;;;;;;7.93;100.00;101425.06;2072241;28;20584;-67
2022/11/04 03:51:40;;;;;;;21.60;14.40;;;;;;;8.67;100.00;101539.03;2070946;28;20192;-66
2022/11/04 03:52:41;;;;;;;22.80;16.50;;;;;;;8.67;100.00;101532.72;2070792;28;20447;-67
2022/11/04 03:53:41;;;;;;;28.33;16.27;;;;;;;8.63;100.00;101527.22;2071870;28;20285;-66
2022/11/04 03:54:43;;;;;;;23.47;16.67;;;;;;;8.68;100.00;101529.56;2072741;28;20217;-65
2022/11/04 03:56:08;;;;;;;29.73;14.90;;;;;;;8.68;100.00;101526.81;2071232;28;20288;-66
2022/11/04 03:57:32;;;;;;;18.90;14.23;;;;;;;8.70;100.00;101529.16;2072702;28;20998;-67
2022/11/04 03:58:52;;;;;;;21.97;14.87;;;;;;;8.69;100.00;101536.66;2071768;28;20511;-66
2022/11/04 04:00:01;;;;;;;23.73;15.30;;;;;;;8.69;100.00;101531.13;2079845;28;20885;-66
2022/11/04 04:01:23;;;;;;;26.73;14.53;;;;;;;8.68;100.00;101523.25;2079102;28;20864;-67
2022/11/04 04:02:34;;;;;;;24.87;14.43;;;;;;;8.67;100.00;101521.66;2071132;28;20442;-67
2022/11/04 04:03:45;;;;;;;20.97;14.70;;;;;;;8.06;100.00;101447.53;2072369;28;20455;-66
2022/11/04 04:04:59;;;;;;;24.60;15.57;;;;;;;8.67;100.00;101519.69;2072074;28;20454;-66
2022/11/04 04:06:09;;;;;;;21.23;13.93;;;;;;;8.64;100.00;101520.50;2071808;28;20472;-67
2022/11/04 04:07:33;;;;;;;20.03;13.73;;;;;;;8.62;100.00;101516.53;2070943;28;20452;-65
2022/11/04 04:08:51;;;;;;;19.80;13.65;;;;;;;8.57;100.00;101520.47;2071295;28;20519;-66
2022/11/04 04:10:03;;;;;;;22.67;14.63;;;;;;;8.55;100.00;101511.00;2071428;28;20179;-66
2022/11/04 04:11:17;;;;;;;19.90;14.40;;;;;;;8.53;100.00;101514.19;2071153;28;20184;-66
2022/11/04 04:12:39;;;;;;;20.17;15.10;;;;;;;7.92;100.00;101426.25;2072198;28;20180;-67
2022/11/04 04:14:06;;;;;;;24.55;15.25;;;;;;;8.46;100.00;101514.19;2072084;28;20193;-66
2022/11/04 04:15:18;;;;;;;20.38;14.30;;;;;;;8.30;100.00;101500.00;2063073;28;20232;-66
2022/11/04 04:16:30;;;;;;;23.13;16.30;;;;;;;8.38;100.00;101514.59;2072261;28;20190;-65
2022/11/04 04:17:45;;;;;;;21.63;15.13;;;;;;;8.34;100.00;101509.09;2070584;28;20495;-67
2022/11/04 04:19:15;;;;;;;23.70;14.15;;;;;;;8.33;100.00;101510.28;2071074;28;20199;-66
2022/11/04 04:20:21;;;;;;;20.20;13.57;;;;;;;8.32;100.00;101507.91;2070791;28;20182;-65
2022/11/04 04:21:28;;;;;;;19.38;14.38;;;;;;;8.30;100.00;101504.75;2071802;28;20205;-66
2022/11/04 04:22:52;;;;;;;19.13;13.77;;;;;;;8.26;100.00;101509.47;2071624;28;20189;-66
2022/11/04 04:27:59;;;;;;;19.80;14.32;;;;;;;7.84;100.00;101463.28;2072241;28;20205;-66
2022/11/04 04:29:03;;;;;;;21.83;15.10;;;;;;;8.11;100.00;101508.66;2072033;28;20200;-66
2022/11/04 04:30:07;;;;;;;26.13;14.98;;;;;;;8.09;100.00;101510.25;2071889;28;20221;-66
2022/11/04 04:31:10;;;;;;;24.90;14.63;;;;;;;8.05;100.00;101510.22;2071428;28;20301;-66
2022/11/04 04:32:12;;;;;;;24.20;15.65;;;;;;;8.04;100.00;101510.66;2071107;28;20200;-66
2022/11/04 04:33:15;;;;;;;25.95;15.88;;;;;;;7.95;100.00;101493.69;2070744;28;20241;-67
2022/11/04 04:34:18;;;;;;;26.38;15.77;;;;;;;7.90;100.00;101483.03;2071970;28;20245;-65
2022/11/04 04:35:41;;;;;;;27.23;14.40;;;;;;;8.02;100.00;101510.22;2072389;28;20675;-65
2022/11/04 04:37:22;;;;;;;20.25;14.73;;;;;;;7.98;100.00;101504.72;2072186;28;20201;-65
2022/11/04 04:45:22;;;;;;;20.85;14.02;;;;;;;7.70;100.00;101501.13;2072383;28;20173;-64
2022/11/04 04:46:23;;;;;;;22.02;15.25;;;;;;;7.72;100.00;101510.59;2071993;28;20292;-64
2022/11/04 04:47:25;;;;;;;21.23;15.47;;;;;;;6.93;100.00;101385.91;2072188;28;20204;-64
2022/11/04 04:48:25;;;;;;;24.40;16.35;;;;;;;7.13;100.00;101425.75;2071695;28;20202;-65
2022/11/04 04:49:33;;;;;;;24.90;16.33;;;;;;;7.69;100.00;101503.09;2071759;28;20211;-64
2022/11/04 04:50:41;;;;;;;22.63;16.23;;;;;;;7.66;100.00;101500.31;2071922;28;20186;-64
2022/11/04 04:51:44;;;;;;;27.02;17.13;;;;;;;7.65;100.00;101504.28;2070388;28;20204;-67
2022/11/04 04:52:49;;;;;;;23.05;16.73;;;;;;;7.63;100.00;101506.66;2071700;28;20220;-67
2022/11/04 04:53:49;;;;;;;29.85;16.83;;;;;;;7.64;100.00;101509.00;2072015;28;20324;-66
2022/11/04 04:54:50;;;;;;;24.13;17.07;;;;;;;7.63;100.00;101510.19;2071908;28;20254;-65
2022/11/04 04:55:50;;;;;;;25.83;16.97;;;;;;;7.60;100.00;101512.94;2071887;28;20217;-65
2022/11/04 04:56:51;;;;;;;23.17;17.27;;;;;;;7.59;100.00;101511.38;2072404;28;20173;-65
2022/11/04 04:57:51;;;;;;;25.03;17.03;;;;;;;7.57;100.00;101510.94;2072172;28;20193;-66
2022/11/04 04:58:51;;;;;;;27.83;18.37;;;;;;;7.51;100.00;101504.22;2070153;28;20926;-66
2022/11/04 04:59:52;;;;;;;28.63;18.13;;;;;;;7.55;100.00;101514.13;2071947;28;20204;-66
2022/11/04 05:00:52;;;;;;;26.53;17.63;;;;;;;7.55;100.00;101516.88;2071788;28;20231;-65
2022/11/04 05:01:53;;;;;;;26.67;18.33;;;;;;;7.20;100.00;101458.06;2068775;28;20193;-66
2022/11/04 05:02:53;;;;;;;23.20;17.33;;;;;;;6.83;100.00;101403.19;2069229;28;20568;-67
2022/11/04 05:03:54;;;;;;;29.63;17.70;;;;;;;7.08;100.00;101439.91;2071875;28;20189;-66
2022/11/04 05:04:55;;;;;;;27.20;17.23;;;;;;;7.59;100.00;101522.41;2071011;28;20645;-67
2022/11/04 05:05:58;;;;;;;25.45;17.90;;;;;;;6.96;100.00;101428.44;2070694;28;20189;-64
2022/11/04 05:06:59;;;;;;;25.60;17.42;;;;;;;7.58;100.00;101518.06;2069996;28;20683;-65
2022/11/04 05:08:08;;;;;;;27.37;17.30;;;;;;;7.56;100.00;101515.69;2068485;28;20716;-62
2022/11/04 05:09:08;;;;;;;26.95;17.48;;;;;;;7.51;100.00;101509.75;2068086;28;20201;-61
2022/11/04 05:10:11;;;;;;;25.73;17.43;;;;;;;7.59;100.00;101519.63;2070166;28;20185;-65
2022/11/04 05:11:12;;;;;;;27.40;16.70;;;;;;;7.58;100.00;101520.81;2078923;28;20225;-67
2022/11/04 05:12:12;;;;;;;28.15;18.02;;;;;;;7.59;100.00;101519.63;2077370;28;20207;-62
2022/11/04 05:13:25;;;;;;;27.00;18.23;;;;;;;7.58;100.00;101520.81;2071833;28;20208;-64
2022/11/04 05:14:25;;;;;;;39.30;18.83;;;;;;;7.59;100.00;101525.16;2072695;28;20240;-63
2022/11/04 05:15:27;;;;;;;28.10;17.40;;;;;;;7.55;100.00;101543.66;2073553;28;20189;-64
2022/11/04 05:16:28;;;;;;;26.35;17.10;;;;;;;7.54;100.00;101522.78;2071256;28;20601;-64
2022/11/04 05:17:28;;;;;;;33.20;19.40;;;;;;;7.53;100.00;101518.44;2071192;28;20184;-64
2022/11/04 05:18:28;;;;;;;39.23;18.03;;;;;;;7.48;100.00;101514.06;2071769;28;20429;-65
2022/11/04 05:19:29;;;;;;;37.50;18.40;;;;;;;7.45;100.00;101509.34;2072436;28;20190;-66
2022/11/04 05:20:32;;;;;;;30.73;17.37;;;;;;;7.43;100.00;101502.66;2072740;28;20228;-65
2022/11/04 05:21:33;;;;;;;32.13;18.10;;;;;;;7.15;100.00;101459.25;2071793;28;20239;-68
2022/11/04 05:22:33;;;;;;;37.07;18.33;;;;;;;7.55;100.00;101516.88;2072929;28;20662;-67
2022/11/04 05:23:34;;;;;;;30.10;17.83;;;;;;;7.56;100.00;101520.41;2071602;28;20201;-68
2022/11/04 05:24:34;;;;;;;44.53;20.40;;;;;;;7.58;100.00;101518.06;2070580;28;20193;-66
2022/11/04 05:25:35;;;;;;;43.40;21.67;;;;;;;7.41;100.00;101499.47;2072001;28;20224;-65
2022/11/04 05:26:35;;;;;;;40.40;19.87;;;;;;;7.59;100.00;101536.97;2070678;28;20667;-65
2022/11/04 05:27:36;;;;;;;44.93;20.63;;;;;;;7.63;100.00;101523.19;2070542;28;20233;-67
2022/11/04 05:28:37;;;;;;;36.67;20.67;;;;;;;7.38;100.00;101481.75;2069735;28;20271;-65
2022/11/04 05:29:38;;;;;;;33.17;21.45;;;;;;;7.66;100.00;101520.44;2070562;28;20216;-64
2022/11/04 05:30:38;;;;;;;33.77;22.63;;;;;;;7.60;100.00;101510.16;2072024;28;20301;-64
2022/11/04 05:31:39;;;;;;;38.73;22.47;;;;;;;7.71;100.00;101527.53;2072914;28;20212;-64